Time;durP1;ratioP1;P1;durP2;ratioP2;P2;SDS_P1;SDS_P2;PMS_P1;PMS_P2;Temp;Humidity;BMP_temperature;BMP_pressure;BME280_temperature;BME280_humidity;BME280_pressure;Samples;Min_cycle;Max_cycle;Signal;HPM_P1;HPM_P2
2022/01/15 00:00:50;;;;;;;24.93;14.83;;;4.70;78.40;;;5.15;55.13;100094.53;4922220;28;123988;-88
2022/01/15 00:03:16;;;;;;;21.83;13.93;;;5.20;79.00;;;5.14;55.07;100082.75;4921854;28;121752;-89
2022/01/15 00:05:45;;;;;;;23.83;13.93;;;4.70;78.70;;;5.15;55.37;100089.03;4953690;28;114797;-87
2022/01/15 00:08:12;;;;;;;26.13;15.70;;;4.70;78.80;;;5.17;54.79;100084.16;4940530;28;113575;-88
2022/01/15 00:10:38;;;;;;;22.87;13.43;;;4.70;78.80;;;5.18;55.35;100081.16;4943826;28;123208;-87
2022/01/15 00:13:13;;;;;;;22.43;12.47;;;4.70;78.80;;;5.20;55.46;100067.22;4939332;28;122239;-87
2022/01/15 00:15:49;;;;;;;25.70;14.33;;;4.70;78.80;;;5.21;55.36;100058.78;4941181;28;112497;-88
2022/01/15 00:19:07;;;;;;;21.87;13.83;;;4.70;78.80;;;5.23;55.11;100075.78;4954898;28;112923;-87
2022/01/15 00:21:52;;;;;;;21.93;13.00;;;4.70;78.80;;;5.21;55.32;100067.00;4935185;28;122272;-87
2022/01/15 00:24:18;;;;;;;25.00;13.20;;;4.70;78.80;;;5.18;55.37;100063.91;4940753;28;123167;-87
2022/01/15 00:26:45;;;;;;;23.13;14.00;;;4.70;78.80;;;5.19;55.51;100065.59;4946868;28;112367;-87
2022/01/15 00:29:31;;;;;;;23.10;13.67;;;4.70;78.80;;;5.20;54.80;100073.53;4934862;28;112188;-87
2022/01/15 00:32:00;;;;;;;21.30;12.43;;;4.70;78.90;;;5.15;55.05;100059.75;4932182;28;123435;-87
2022/01/15 00:34:45;;;;;;;19.23;13.40;;;4.80;79.00;;;5.18;54.74;100067.47;4937845;28;122449;-87
2022/01/15 00:37:33;;;;;;;25.37;14.27;;;4.70;78.90;;;5.16;54.81;100066.91;4924416;28;112304;-86
2022/01/15 00:40:01;;;;;;;22.90;12.40;;;4.70;78.90;;;5.12;55.43;100060.22;4913222;28;112834;-86
2022/01/15 00:42:29;;;;;;;21.97;13.00;;;4.70;78.90;;;5.11;55.44;100063.25;4926315;28;121859;-87
2022/01/15 00:44:58;;;;;;;20.50;12.23;;;4.70;79.00;;;5.11;55.05;100066.81;4939390;28;121942;-87
2022/01/15 00:47:28;;;;;;;23.87;12.27;;;4.70;79.00;;;5.11;54.95;100058.59;4943233;28;112907;-87
2022/01/15 00:49:56;;;;;;;22.40;13.27;;;4.60;78.90;;;5.09;54.93;100063.47;4943223;28;113310;-87
2022/01/15 00:52:25;;;;;;;20.90;12.47;;;4.60;78.90;;;5.08;54.95;100059.91;4960467;28;122388;-88
2022/01/15 00:54:53;;;;;;;22.43;12.63;;;4.60;78.90;;;5.09;55.08;100060.72;4932488;28;122255;-87
2022/01/15 00:57:24;;;;;;;18.00;12.10;;;4.60;79.00;;;5.09;55.26;100049.78;4950707;28;111804;-88
2022/01/15 00:59:52;;;;;;;22.20;12.07;;;4.60;79.00;;;5.06;55.65;100044.78;4965956;28;111784;-86
2022/01/15 01:02:58;;;;;;;21.93;11.60;;;4.60;79.00;;;5.05;55.07;100045.84;4951915;28;122215;-87
2022/01/15 01:05:45;;;;;;;17.23;10.90;;;4.50;79.00;;;5.01;55.22;100067.44;4956401;28;123531;-88
2022/01/15 01:09:11;;;;;;;19.17;11.90;;;4.50;79.00;;;4.98;55.13;100048.75;4935816;28;114112;-86
2022/01/15 01:24:27;;;;;;;29.13;15.20;;;4.10;80.10;;;4.42;56.07;100056.66;4902196;28;115074;-87
2022/01/15 01:27:06;;;;;;;27.47;13.80;;;4.00;79.90;;;4.37;56.25;100044.78;4915743;28;124004;-88
2022/01/15 01:29:42;;;;;;;23.80;12.70;;;4.00;80.00;;;4.36;56.55;100041.22;4894511;28;122439;-87
2022/01/15 01:32:25;;;;;;;24.87;12.80;;;4.00;80.10;;;4.35;56.37;100049.66;4897478;28;112887;-87
2022/01/15 01:42:03;;;;;;;22.53;12.77;;;3.90;80.20;;;4.29;56.53;100051.44;4918376;28;124232;-88
2022/01/15 01:48:13;;;;;;;27.67;14.70;;;3.90;80.30;;;4.14;56.40;100049.22;4897202;28;115225;-88
2022/01/15 01:51:33;;;;;;;26.73;13.53;;;5.20;81.60;;;4.11;56.44;100048.84;4914291;28;124016;-87
2022/01/15 01:54:06;;;;;;;26.27;14.60;;;3.70;80.60;;;4.02;56.94;100050.28;4947548;28;123352;-88
2022/01/15 01:56:35;;;;;;;26.37;14.93;;;3.60;80.80;;;3.91;57.09;100052.78;4933826;28;113159;-89
2022/01/15 01:59:06;;;;;;;22.60;13.83;;;3.50;80.90;;;3.89;57.49;100057.66;4933877;28;114857;-85
2022/01/15 02:01:33;;;;;;;25.00;13.50;;;4.20;81.50;;;3.87;56.82;100054.34;5000504;28;122588;-89
2022/01/15 02:04:39;;;;;;;26.33;13.70;;;3.60;81.00;;;3.90;56.96;100059.34;4994005;28;122553;-85
2022/01/15 02:07:28;;;;;;;23.37;12.47;;;3.40;80.90;;;3.86;57.18;100047.19;4975995;28;112749;-88
2022/01/15 02:09:57;;;;;;;19.57;12.00;;;3.40;80.80;;;3.83;57.10;100042.22;4970059;28;112267;-88
2022/01/15 02:12:52;;;;;;;18.40;11.70;;;3.60;80.90;;;3.90;56.97;100045.66;4975221;28;122213;-87
2022/01/15 02:15:24;;;;;;;26.00;13.27;;;3.40;80.90;;;3.91;57.10;100050.06;4991284;28;121713;-87
2022/01/15 02:18:21;;;;;;;18.50;12.10;;;3.40;81.00;;;3.94;57.22;100037.81;4983950;28;113724;-88
2022/01/15 02:24:32;;;;;;;21.93;11.43;;;3.40;81.10;;;3.91;56.89;100033.66;4919718;28;125064;-86
2022/01/15 02:27:06;;;;;;;24.67;12.00;;;3.40;81.10;;;3.90;57.45;100028.44;4932950;28;123336;-86
2022/01/15 02:29:43;;;;;;;21.80;11.50;;;3.40;81.10;;;3.93;56.84;100015.09;4917790;28;112762;-88
2022/01/15 02:32:15;;;;;;;19.37;10.90;;;3.50;81.20;;;3.94;57.31;100022.22;4923852;28;114165;-87
2022/01/15 02:35:21;;;;;;;20.30;11.97;;;3.70;81.40;;;3.98;56.65;100017.97;4928109;28;122448;-89
2022/01/15 02:37:50;;;;;;;22.43;12.17;;;3.50;81.30;;;3.97;57.25;100021.75;4906824;28;122153;-87
2022/01/15 02:40:25;;;;;;;18.17;11.53;;;2.80;80.60;;;4.01;57.09;100013.09;4892113;28;114988;-88
2022/01/15 02:43:08;;;;;;;22.90;10.87;;;5.10;82.70;;;4.05;56.79;100014.25;4879725;28;115227;-88
2022/01/15 02:45:43;;;;;;;15.77;10.53;;;3.50;81.30;;;4.03;57.14;100003.59;4876122;28;124575;-88
2022/01/15 02:48:18;;;;;;;18.03;10.43;;;3.60;81.40;;;4.07;56.77;100003.91;4891892;28;123998;-88
2022/01/15 02:50:46;;;;;;;19.03;11.47;;;3.60;81.40;;;4.07;57.39;100015.69;4878708;28;112942;-88
2022/01/15 02:53:17;;;;;;;21.07;11.37;;;4.50;82.30;;;4.11;57.20;100005.94;4895569;28;112458;-88
2022/01/15 02:56:28;;;;;;;24.07;12.27;;;3.60;81.60;;;4.12;57.16;99998.56;4875703;29;123069;-88
2022/01/15 02:59:06;;;;;;;19.93;11.83;;;3.60;81.60;;;4.08;56.73;99997.38;4868582;29;121517;-88
2022/01/15 03:01:38;;;;;;;19.70;11.30;;;3.70;81.60;;;4.04;57.45;100004.41;4875876;29;114419;-88
2022/01/15 03:04:24;;;;;;;22.90;11.67;;;3.80;81.60;;;4.08;56.91;99997.38;4909403;28;111956;-88
2022/01/15 03:07:14;;;;;;;17.90;11.80;;;3.60;81.60;;;4.08;57.09;99997.38;4878602;28;123410;-88
2022/01/15 03:09:53;;;;;;;18.43;11.30;;;3.60;81.60;;;4.08;56.73;99989.16;4897102;28;123191;-87
2022/01/15 03:12:24;;;;;;;20.03;11.90;;;3.60;81.60;;;4.08;56.95;99981.78;4912349;28;113579;-89
2022/01/15 03:15:08;;;;;;;17.57;11.00;;;3.60;81.60;;;4.10;56.69;99982.38;4914335;28;113121;-87
2022/01/15 03:17:36;;;;;;;18.23;11.10;;;3.60;81.60;;;4.07;57.31;99971.94;4931667;28;123344;-87
2022/01/15 03:20:07;;;;;;;16.43;10.60;;;2.40;80.50;;;4.08;56.91;99973.59;4982194;28;123561;-87
2022/01/15 03:26:15;;;;;;;20.43;11.00;;;3.60;81.60;;;4.07;57.16;99965.63;4931371;28;113864;-86
2022/01/15 03:28:58;;;;;;;20.03;11.70;;;3.60;81.50;;;4.10;56.88;99960.50;4900588;28;121687;-88
2022/01/15 03:31:27;;;;;;;18.30;10.87;;;4.90;82.80;;;4.11;57.37;99961.34;4932556;28;123407;-86
2022/01/15 03:33:55;;;;;;;22.47;11.10;;;3.60;81.60;;;4.11;56.72;99950.38;4960696;28;113477;-88
2022/01/15 03:36:28;;;;;;;21.10;12.00;;;3.60;81.50;;;4.14;56.93;99956.22;4934685;28;113770;-88
2022/01/15 03:39:52;;;;;;;20.10;11.00;;;3.60;81.60;;;4.14;56.86;99958.13;4917072;28;120757;-87
2022/01/15 03:42:25;;;;;;;14.87;10.40;;;3.60;81.60;;;4.10;56.64;99943.28;4941046;28;122801;-88
2022/01/15 03:45:15;;;;;;;18.00;10.90;;;3.60;81.50;;;4.09;56.71;99949.81;4933333;28;114235;-85
2022/01/15 03:47:48;;;;;;;17.53;11.00;;;3.60;81.50;;;4.09;57.08;99941.63;4946736;28;113446;-88
2022/01/15 03:50:16;;;;;;;18.60;11.80;;;3.60;81.50;;;4.10;57.16;99943.28;4957656;28;122909;-87
2022/01/15 03:52:46;;;;;;;18.03;11.30;;;3.90;81.80;;;4.10;57.00;99937.81;4953589;28;123741;-86
2022/01/15 03:55:31;;;;;;;17.20;10.97;;;3.60;81.50;;;4.13;56.81;99940.06;4953717;28;112433;-88
2022/01/15 03:58:01;;;;;;;21.40;11.67;;;3.60;81.50;;;4.09;56.68;99934.25;4953777;28;112218;-86
2022/01/15 04:00:48;;;;;;;18.97;10.83;;;3.60;81.50;;;4.09;56.99;99936.97;4972066;28;123221;-87
2022/01/15 04:03:18;;;;;;;19.53;11.43;;;3.60;81.50;;;4.04;56.67;99938.78;4968306;28;123090;-87
2022/01/15 04:09:44;;;;;;;23.10;12.60;;;3.50;81.80;;;3.83;57.09;99937.50;4969645;28;114001;-85
2022/01/15 04:13:00;;;;;;;27.03;14.43;;;3.40;81.50;;;3.79;57.62;99936.31;4937581;28;124422;-87
2022/01/15 04:15:28;;;;;;;26.53;13.20;;;3.30;81.70;;;3.66;57.47;99937.41;4949266;28;121752;-86
2022/01/15 04:17:56;;;;;;;20.60;13.20;;;3.20;81.70;;;3.63;57.49;99938.72;4949414;28;111847;-87
2022/01/15 04:20:24;;;;;;;22.60;12.93;;;3.20;82.40;;;3.63;57.46;99943.38;4936579;28;111801;-89
2022/01/15 04:22:53;;;;;;;21.10;11.97;;;3.20;81.90;;;3.62;57.60;99937.03;4981609;28;123522;-84
2022/01/15 04:25:22;;;;;;;23.40;12.93;;;3.20;81.90;;;3.59;57.69;99937.53;4928502;28;122047;-84
2022/01/15 04:27:56;;;;;;;23.13;12.03;;;3.10;82.10;;;3.56;57.69;99946.19;4960633;28;115892;-86
2022/01/15 04:30:35;;;;;;;22.70;12.13;;;3.50;82.40;;;3.56;57.63;99939.91;4943826;28;114741;-83
2022/01/15 04:33:04;;;;;;;17.30;11.10;;;3.10;82.10;;;3.58;57.54;99945.97;5004783;28;123540;-81
2022/01/15 04:35:34;;;;;;;20.13;12.57;;;4.80;83.60;;;3.57;57.55;99939.66;4958555;28;123866;-87
2022/01/15 04:38:07;;;;;;;22.87;12.40;;;3.20;82.20;;;3.51;57.89;99941.44;4955722;28;112322;-88
2022/01/15 04:40:36;;;;;;;17.13;11.93;;;3.00;82.10;;;3.50;58.08;99939.78;4984386;28;112345;-88
2022/01/15 04:43:07;;;;;;;17.43;10.50;;;3.00;82.10;;;3.49;57.73;99943.59;4981853;28;123294;-88
2022/01/15 04:46:31;;;;;;;19.30;11.43;;;3.00;82.20;;;3.50;57.71;99942.53;4959155;28;122034;-84
2022/01/15 04:52:42;;;;;;;20.33;11.90;;;3.00;82.30;;;3.37;58.03;99922.81;4962960;28;114428;-89
2022/01/15 04:55:15;;;;;;;18.17;10.97;;;2.90;82.20;;;3.38;58.03;99930.75;5007683;28;123550;-86
2022/01/15 04:57:43;;;;;;;21.53;11.23;;;2.90;82.30;;;3.38;58.22;99935.38;4976739;28;121831;-86
2022/01/15 05:00:16;;;;;;;17.23;11.23;;;2.90;82.30;;;3.42;58.13;99936.59;4973246;28;112971;-88
2022/01/15 05:02:43;;;;;;;20.53;12.03;;;2.90;82.50;;;3.38;57.87;99941.69;4957254;28;112441;-88
2022/01/15 05:05:14;;;;;;;17.83;11.03;;;2.90;82.50;;;3.40;57.64;99942.28;4988066;28;123721;-88
2022/01/15 05:08:40;;;;;;;20.10;11.97;;;2.90;82.50;;;3.39;57.90;99937.06;4955673;28;121145;-87
2022/01/15 05:11:31;;;;;;;19.03;11.83;;;2.90;82.60;;;3.30;58.10;99944.75;4952915;28;113500;-88
2022/01/15 05:13:59;;;;;;;21.80;11.47;;;2.80;82.60;;;3.22;58.04;99954.13;4954948;28;111790;-87
2022/01/15 05:16:49;;;;;;;21.73;11.20;;;2.80;82.80;;;3.22;58.27;99942.38;4971168;28;123659;-88
2022/01/15 05:19:21;;;;;;;25.97;12.20;;;2.80;82.90;;;3.24;58.09;99951.19;4948539;28;124262;-89
2022/01/15 05:22:08;;;;;;;19.83;11.07;;;2.80;82.90;;;3.27;58.23;99956.16;4967708;28;113957;-89
2022/01/15 05:24:37;;;;;;;19.20;10.87;;;2.70;82.80;;;3.24;58.28;99953.91;4968144;28;114144;-88
2022/01/15 05:27:16;;;;;;;20.50;12.10;;;2.80;82.80;;;3.23;58.22;99955.00;4966308;28;123486;-87
2022/01/15 05:29:45;;;;;;;18.40;11.60;;;2.80;82.90;;;3.20;58.29;99950.00;4933952;28;122615;-88
2022/01/15 05:32:12;;;;;;;16.90;12.20;;;2.90;83.00;;;3.19;58.56;99943.69;4984326;28;112093;-87
2022/01/15 05:34:41;;;;;;;20.43;12.97;;;2.70;83.00;;;3.19;58.66;99949.16;4955347;28;111859;-87
2022/01/15 05:37:46;;;;;;;19.63;11.53;;;2.70;83.00;;;3.19;58.25;99943.69;4940857;28;122420;-88
2022/01/15 05:40:13;;;;;;;21.30;12.30;;;2.70;83.10;;;3.15;58.39;99941.69;4933759;28;123306;-87
2022/01/15 05:42:42;;;;;;;21.07;11.30;;;2.70;83.10;;;3.14;58.62;99946.28;4914892;28;112397;-87
2022/01/15 05:48:50;;;;;;;21.27;11.60;;;2.60;83.10;;;3.08;58.68;99956.25;4963826;28;123797;-86
2022/01/15 05:51:36;;;;;;;19.73;10.83;;;2.60;83.10;;;3.14;58.59;99964.56;4923446;28;121540;-88
2022/01/15 05:54:04;;;;;;;19.43;10.90;;;2.60;83.20;;;3.14;58.54;99964.56;4905611;28;114041;-88
2022/01/15 05:57:09;;;;;;;23.00;11.17;;;2.60;83.20;;;3.19;58.48;99954.59;4907723;28;114403;-87
2022/01/15 05:59:36;;;;;;;19.73;11.30;;;2.70;83.40;;;3.15;58.52;99960.78;4900206;28;123540;-86
2022/01/15 06:02:23;;;;;;;23.30;12.13;;;2.90;83.40;;;3.18;58.15;99950.22;4925858;28;123413;-87
2022/01/15 06:04:51;;;;;;;22.87;13.13;;;2.70;83.30;;;3.16;58.42;99960.53;4927642;28;112116;-87
2022/01/15 06:08:13;;;;;;;21.93;12.30;;;2.70;83.30;;;3.20;58.44;99950.00;4943893;28;113223;-85
2022/01/15 06:10:41;;;;;;;18.37;10.70;;;2.70;83.30;;;3.13;58.58;99955.56;4941006;28;122004;-88
2022/01/15 06:13:07;;;;;;;18.60;10.67;;;3.10;83.50;;;3.14;58.59;99956.38;4926401;28;122442;-87
2022/01/15 06:15:34;;;;;;;16.90;10.50;;;2.70;83.10;;;3.14;58.44;99964.56;4918697;28;114099;-86
2022/01/15 06:18:01;;;;;;;17.10;10.87;;;2.70;83.10;;;3.15;58.17;99958.06;4933850;28;112887;-88
2022/01/15 06:20:27;;;;;;;19.23;12.17;;;4.20;84.40;;;3.13;58.67;99954.72;4926081;28;122072;-87
2022/01/15 06:22:54;;;;;;;18.70;10.90;;;3.40;84.40;;;3.09;58.48;99957.94;4905945;28;122456;-87
2022/01/15 06:25:23;;;;;;;19.10;10.73;;;3.80;84.00;;;3.08;57.88;99953.53;4917363;28;113005;-87
2022/01/15 06:27:50;;;;;;;18.07;10.23;;;2.60;83.10;;;3.08;58.25;99956.25;4899892;28;112540;-87
2022/01/15 06:30:17;;;;;;;17.20;11.40;;;2.60;83.10;;;3.08;58.06;99955.44;4925179;28;121785;-87
2022/01/15 06:32:43;;;;;;;17.37;10.27;;;2.70;83.30;;;3.07;58.48;99951.88;4937979;28;123284;-87
2022/01/15 06:35:14;;;;;;;20.17;11.33;;;3.60;84.10;;;3.08;58.37;99950.78;4941205;28;112737;-87
2022/01/15 06:38:18;;;;;;;22.07;12.17;;;2.60;83.30;;;3.04;58.30;99946.88;4906194;28;113207;-87
2022/01/15 06:40:46;;;;;;;18.50;11.50;;;2.50;83.30;;;2.95;58.89;99953.72;4925169;28;123922;-87
2022/01/15 06:43:13;;;;;;;20.50;11.73;;;2.70;83.40;;;2.91;58.60;99946.28;4943801;28;122918;-84
2022/01/15 06:46:17;;;;;;;18.17;11.40;;;2.50;83.30;;;2.91;58.51;99941.63;4945213;28;112261;-87
2022/01/15 06:49:05;;;;;;;16.90;10.63;;;2.40;83.20;;;2.86;58.56;99946.97;4942649;28;113446;-88
2022/01/15 06:55:52;;;;;;;19.70;10.60;;;2.30;83.40;;;2.73;58.87;99936.25;4963680;28;123778;-87
2022/01/15 06:58:23;;;;;;;16.20;9.50;;;2.30;83.40;;;2.70;58.69;99934.00;4948894;28;114228;-87
2022/01/15 07:00:59;;;;;;;19.30;11.77;;;2.30;83.40;;;2.72;59.30;99934.59;4950358;28;113239;-87
2022/01/15 07:03:28;;;;;;;15.33;10.00;;;2.30;83.50;;;2.69;58.55;99940.50;4945095;28;121332;-87
2022/01/15 07:06:00;;;;;;;16.87;11.00;;;2.20;83.50;;;2.71;59.14;99941.09;4944333;28;122417;-88
2022/01/15 07:08:28;;;;;;;17.07;10.40;;;1.50;82.90;;;2.69;58.78;99938.63;4943142;28;113646;-86
2022/01/15 07:10:57;;;;;;;26.27;13.20;;;2.20;83.60;;;2.64;59.53;99942.03;4940360;28;114456;-88
2022/01/15 07:13:43;;;;;;;16.40;11.10;;;2.20;84.00;;;2.63;59.19;99934.94;4914639;28;123369;-88
2022/01/15 07:16:11;;;;;;;17.93;11.63;;;2.10;83.80;;;2.60;59.16;99929.91;4949171;28;123071;-87
2022/01/15 07:18:57;;;;;;;15.23;9.93;;;2.10;83.90;;;2.65;59.34;99924.59;4933076;28;113544;-87
2022/01/15 07:22:06;;;;;;;18.03;10.50;;;2.10;84.20;;;2.74;59.66;99938.75;4911778;28;112454;-88
2022/01/15 07:25:12;;;;;;;19.03;11.57;;;2.10;84.80;;;2.69;59.22;99924.13;4914706;28;121958;-88
2022/01/15 07:28:18;;;;;;;21.03;11.27;;;2.10;84.60;;;2.61;59.41;99920.69;4917527;28;121565;-87
2022/01/15 07:30:45;;;;;;;17.73;11.43;;;2.10;84.40;;;2.56;59.55;99923.28;4931562;28;112355;-87
2022/01/15 07:33:13;;;;;;;19.90;10.70;;;2.10;84.40;;;2.59;59.34;99928.25;4928899;28;113356;-87
2022/01/15 07:35:46;;;;;;;23.13;11.30;;;2.10;84.30;;;2.62;59.71;99922.34;4890401;28;122268;-88
2022/01/15 07:38:14;;;;;;;22.60;11.90;;;2.10;84.30;;;2.60;59.71;99924.44;4900230;28;123477;-87
2022/01/15 07:41:01;;;;;;;18.60;10.47;;;2.10;84.40;;;2.64;59.15;99922.94;4895930;28;112652;-88
2022/01/15 07:44:07;;;;;;;22.67;11.33;;;2.10;84.30;;;2.65;59.14;99930.03;4976339;28;111985;-89
2022/01/15 07:46:36;;;;;;;15.37;9.57;;;2.10;84.30;;;2.63;59.35;99925.88;4926609;28;122001;-88
2022/01/15 07:49:04;;;;;;;21.70;11.77;;;2.60;84.70;;;2.64;59.56;99925.66;4911917;28;122468;-87
2022/01/15 07:52:10;;;;;;;18.93;10.17;;;2.20;84.20;;;2.69;59.05;99916.78;4944503;28;111887;-87
2022/01/15 07:54:58;;;;;;;19.97;11.30;;;2.20;84.30;;;2.70;59.17;99915.72;4953127;28;114646;-88
2022/01/15 08:01:05;;;;;;;23.63;12.30;;;2.10;84.30;;;2.52;59.14;99905.69;4942601;28;124456;-88
2022/01/15 08:04:09;;;;;;;17.90;10.47;;;2.10;84.30;;;2.52;59.17;99913.03;4924242;28;113532;-87
2022/01/15 08:06:40;;;;;;;19.90;11.40;;;2.00;84.30;;;2.49;59.25;99903.44;4957349;28;114513;-88
2022/01/15 08:09:08;;;;;;;19.50;11.60;;;2.40;84.70;;;2.48;59.49;99903.69;4924965;28;121934;-87
2022/01/15 08:12:38;;;;;;;22.57;12.20;;;2.00;84.50;;;2.51;59.57;99897.75;4959817;28;121847;-88
2022/01/15 08:15:07;;;;;;;20.60;12.03;;;2.00;84.80;;;2.43;59.72;99898.91;4905487;28;112896;-85
2022/01/15 08:17:34;;;;;;;19.37;12.00;;;1.90;84.70;;;2.41;59.80;99904.59;4911148;28;113486;-87
2022/01/15 08:20:03;;;;;;;20.60;12.43;;;2.00;84.80;;;2.44;59.54;99903.28;4913476;28;121965;-87
2022/01/15 08:22:51;;;;;;;20.60;11.10;;;1.90;84.80;;;2.51;59.54;99909.50;4927003;28;123726;-87
2022/01/15 08:25:55;;;;;;;18.17;11.33;;;2.00;85.00;;;2.55;59.73;99901.66;4915260;28;113102;-87
2022/01/15 08:28:43;;;;;;;18.80;10.90;;;2.00;84.90;;;2.58;59.88;99910.25;4899688;28;112982;-87
2022/01/15 08:31:10;;;;;;;18.77;10.97;;;2.00;84.80;;;2.58;59.87;99910.25;4890258;28;122404;-87
2022/01/15 08:33:38;;;;;;;17.70;11.10;;;2.10;84.90;;;2.64;59.50;99903.00;4897283;28;122841;-84
2022/01/15 08:36:07;;;;;;;17.57;11.87;;;2.10;84.90;;;2.71;59.04;99903.72;4891614;28;112966;-87
2022/01/15 08:38:35;;;;;;;14.80;10.37;;;2.20;84.90;;;2.77;59.55;99907.44;4923742;28;113722;-88
2022/01/15 08:41:27;;;;;;;23.70;11.53;;;2.30;84.90;;;2.85;58.98;99901.63;4900412;28;122012;-87
2022/01/15 08:43:55;;;;;;;19.77;11.57;;;2.30;85.00;;;2.85;59.35;99909.81;4877147;28;123415;-88
2022/01/15 08:46:40;;;;;;;20.77;12.40;;;2.30;84.90;;;2.88;59.33;99899.25;4903957;28;112212;-86
2022/01/15 08:49:09;;;;;;;21.07;12.27;;;2.30;84.80;;;2.89;59.66;99889.16;4889768;28;113636;-87
2022/01/15 08:51:55;;;;;;;23.33;12.73;;;2.40;84.70;;;2.94;59.46;99894.75;4918841;28;123068;-87
2022/01/15 08:54:40;;;;;;;20.80;13.07;;;2.40;84.80;;;2.92;59.10;99894.16;4967434;28;122780;-88
2022/01/15 08:57:07;;;;;;;22.57;12.57;;;2.40;84.70;;;2.90;59.46;99890.81;4988284;28;113821;-88
2022/01/15 08:59:33;;;;;;;21.67;12.60;;;2.40;84.60;;;2.94;59.49;99886.56;4990198;28;113133;-88
2022/01/15 09:02:37;;;;;;;16.40;10.80;;;2.40;84.60;;;3.04;58.99;99881.38;4989925;28;123106;-86
2022/01/15 09:06:00;;;;;;;15.03;10.00;;;2.50;84.70;;;3.11;58.96;99881.22;4990567;28;121992;-87
2022/01/15 09:08:28;;;;;;;19.83;10.73;;;2.50;84.60;;;3.13;59.30;99886.47;4993887;28;115400;-87
2022/01/15 09:10:55;;;;;;;23.37;11.97;;;3.80;85.60;;;3.18;58.83;99879.22;4976805;28;112085;-89
2022/01/15 09:13:41;;;;;;;16.50;11.00;;;2.70;84.60;;;3.27;58.78;99888.72;4977132;28;121853;-88
2022/01/15 09:16:08;;;;;;;15.27;9.40;;;2.70;84.50;;;3.29;58.97;99883.03;4994542;28;123360;-86
2022/01/15 09:18:56;;;;;;;18.97;12.60;;;2.70;84.50;;;3.39;58.26;99877.81;4980194;28;113629;-87
2022/01/15 09:21:25;;;;;;;19.93;12.00;;;2.80;84.50;;;3.37;58.55;99879.94;4932514;28;113028;-88
2022/01/15 09:23:53;;;;;;;23.97;12.33;;;2.80;84.30;;;3.38;58.66;99878.03;4957703;28;122853;-87
2022/01/15 09:26:45;;;;;;;19.03;12.40;;;4.60;86.00;;;3.42;58.59;99874.59;4938450;28;122470;-86
2022/01/15 09:31:55;;;;;;;16.40;11.97;;;2.90;84.40;;;3.45;58.56;99878.75;4951320;28;113806;-87
2022/01/15 09:39:02;;;;;;;16.23;11.60;;;2.90;84.90;;;3.60;58.43;99875.50;4969984;28;124086;-87
2022/01/15 09:41:31;;;;;;;19.87;12.40;;;3.00;84.30;;;3.58;58.43;99878.50;4944662;28;113302;-88
2022/01/15 09:43:59;;;;;;;25.90;13.80;;;3.00;84.30;;;3.62;58.71;99881.56;4953579;28;113816;-88
2022/01/15 09:46:26;;;;;;;15.20;11.40;;;3.00;84.30;;;3.63;58.13;99877.78;4956157;28;123961;-85
2022/01/15 09:48:54;;;;;;;18.60;12.63;;;3.00;84.30;;;3.67;58.44;99889.88;4943142;28;123872;-86
2022/01/15 09:51:22;;;;;;;17.70;12.37;;;3.10;84.50;;;3.73;58.70;99883.44;4938450;28;114515;-87
2022/01/15 09:53:49;;;;;;;18.90;11.10;;;3.10;84.50;;;3.81;58.58;99868.56;4964575;28;114725;-88
2022/01/15 09:56:16;;;;;;;20.00;11.90;;;3.20;84.60;;;3.88;58.46;99874.75;4945277;28;124038;-88
2022/01/15 09:58:43;;;;;;;21.93;13.70;;;3.20;84.60;;;3.93;58.02;99875.69;4951832;28;123796;-85
2022/01/15 10:01:12;;;;;;;18.00;12.93;;;3.50;84.80;;;3.95;58.40;99869.97;4953166;28;114312;-87
2022/01/15 10:03:38;;;;;;;22.40;12.67;;;3.30;84.50;;;4.01;57.98;99866.25;4951631;28;113164;-86
2022/01/15 10:06:07;;;;;;;22.17;13.80;;;3.40;84.60;;;4.06;58.84;99871.00;4957742;28;123324;-90
2022/01/15 10:09:12;;;;;;;24.43;12.40;;;3.40;84.50;;;4.14;58.50;99862.41;4952537;28;124181;-88
2022/01/15 10:11:58;;;;;;;17.93;12.90;;;3.50;84.50;;;4.19;57.92;99860.59;4943760;28;113551;-85
2022/01/15 10:14:45;;;;;;;20.50;12.07;;;3.50;84.30;;;4.26;58.14;99863.19;4942515;28;113746;-88
2022/01/15 10:17:25;;;;;;;24.73;13.40;;;3.60;84.30;;;4.30;57.82;99856.16;4950996;28;123773;-86
2022/01/15 10:19:57;;;;;;;24.67;14.90;;;3.60;84.30;;;4.34;57.68;99862.78;4970007;28;124004;-88
2022/01/15 10:22:26;;;;;;;22.90;13.53;;;3.70;84.20;;;4.39;57.48;99853.84;4971735;28;113386;-87
2022/01/15 10:25:15;;;;;;;19.60;12.80;;;3.70;84.10;;;4.50;57.82;99854.88;4985439;28;113970;-88
2022/01/15 10:28:01;;;;;;;23.63;14.00;;;3.80;84.10;;;4.59;57.17;99850.63;4947000;28;123905;-87
2022/01/15 10:30:29;;;;;;;24.93;14.17;;;3.90;84.20;;;4.64;57.52;99847.97;4956670;28;123885;-87
2022/01/15 10:33:07;;;;;;;20.80;13.73;;;3.90;84.00;;;4.71;57.75;99843.19;4960202;28;113550;-88
2022/01/15 10:35:55;;;;;;;19.73;13.13;;;4.00;84.00;;;4.80;56.77;99843.59;4933771;28;113297;-87
2022/01/15 10:38:22;;;;;;;24.57;15.27;;;4.10;83.80;;;4.85;56.77;99840.94;4961981;28;123036;-88
2022/01/15 10:40:53;;;;;;;20.20;13.67;;;4.10;83.70;;;4.93;56.60;99831.50;4952576;28;123771;-88
2022/01/15 10:43:21;;;;;;;23.33;16.10;;;4.20;83.60;;;4.97;57.02;99833.50;4971544;28;114897;-89
2022/01/15 10:46:06;;;;;;;25.10;14.90;;;4.30;83.30;;;5.02;55.84;99838.19;4955318;28;113838;-86
2022/01/15 10:48:35;;;;;;;23.40;15.90;;;4.30;83.20;;;5.05;56.43;99824.00;4969639;28;123373;-87
2022/01/15 10:51:07;;;;;;;19.40;13.47;;;4.40;83.20;;;5.17;56.60;99822.00;4970322;28;124139;-87
2022/01/15 10:53:37;;;;;;;21.30;13.87;;;4.50;83.40;;;5.30;56.21;99818.91;4970634;28;114108;-87
2022/01/15 10:56:08;;;;;;;21.90;13.07;;;4.60;83.30;;;5.44;56.28;99810.31;4958697;28;113462;-87
2022/01/15 10:58:37;;;;;;;22.67;13.60;;;5.00;83.50;;;5.54;55.50;99810.44;4958790;28;123471;-86
2022/01/15 11:01:05;;;;;;;20.50;13.83;;;4.80;83.10;;;5.67;56.36;99798.25;4958851;28;123224;-84
2022/01/15 11:03:50;;;;;;;22.63;12.73;;;4.90;83.00;;;5.84;55.96;99790.78;4956413;28;113396;-88
2022/01/15 11:06:38;;;;;;;20.63;13.60;;;5.10;82.90;;;5.94;54.74;99796.44;4954724;28;114166;-86
2022/01/15 11:09:04;;;;;;;21.43;12.80;;;5.20;82.50;;;6.02;55.84;99781.44;4972519;28;122897;-84
2022/01/15 11:11:32;;;;;;;23.03;13.53;;;5.20;82.40;;;6.14;54.72;99779.34;4982395;28;122809;-87
2022/01/15 11:13:59;;;;;;;24.73;14.90;;;5.40;82.30;;;6.25;54.35;99780.28;4968048;28;114504;-87
2022/01/15 11:16:25;;;;;;;20.10;13.30;;;5.60;81.90;;;6.35;54.98;99771.31;4971221;28;113794;-86
2022/01/15 11:18:54;;;;;;;20.13;13.80;;;5.60;81.90;;;6.47;53.97;99769.22;4968292;28;124053;-88
2022/01/15 11:21:24;;;;;;;25.30;13.80;;;5.60;81.50;;;6.60;54.16;99763.28;4952379;28;123861;-86
2022/01/15 11:23:51;;;;;;;22.43;13.67;;;5.80;81.70;;;6.78;54.13;99769.47;4970737;28;114320;-86
2022/01/15 11:26:24;;;;;;;17.17;11.13;;;6.00;82.40;;;6.99;53.80;99759.47;4984192;28;113525;-87
2022/01/15 11:28:53;;;;;;;18.33;11.87;;;6.20;81.80;;;7.14;53.37;99766.94;4981790;28;123825;-84
2022/01/15 11:31:26;;;;;;;21.97;12.53;;;6.60;81.80;;;7.31;53.41;99756.63;4962913;28;123652;-85
2022/01/15 11:33:56;;;;;;;18.30;12.07;;;7.60;82.40;;;7.50;53.34;99749.53;4945370;28;115165;-86
2022/01/15 11:36:43;;;;;;;17.67;10.53;;;6.60;81.20;;;7.71;52.92;99750.44;4967257;28;114756;-87
2022/01/15 11:39:34;;;;;;;20.50;14.90;;;6.70;81.00;;;7.83;51.00;99744.69;4970666;28;123919;-87
2022/01/15 11:42:04;;;;;;;18.57;13.00;;;6.90;78.80;;;7.86;51.46;99743.34;4932122;28;123804;-85
2022/01/15 11:44:35;;;;;;;20.37;12.53;;;6.90;79.00;;;7.98;51.70;99743.91;4961869;28;114715;-88
2022/01/15 11:47:20;;;;;;;20.03;13.00;;;7.10;79.30;;;8.18;51.35;99737.59;4960275;28;114177;-87
2022/01/15 11:49:49;;;;;;;15.43;10.87;;;7.30;79.10;;;8.35;51.00;99738.16;4964268;28;124083;-88